Johnsburg, Indiana
Current Conditions -  °F | °C
As of 5:15 AM on Wednesday 22 Oct 2014 (Local Time) from KHNB Reporting Station
Clear Clear  
Wind Chill: 35°   Ceiling: Unl
Heat Index: 39°   Visibility: 5mi
Dew Point: 37°   Wind: 6mph
Humidity: 93%   Direction: 60°ENE
Pressure: 30.25"   Gusts: NA
Location:  38.3038°N, 86.9615°W
Report Text: KHNB 221015Z AUTO 06005KT 5SM CLR 04/03 A3025 RMK AO1
Loading
Personal Weather Stations






























Interactive Weather Map
Tropical Storm Tracking
New forecast layout! Learn more

10-Day Weather Forecast

Advertisements
Track Severe Weather on mobile